Time;durP1;ratioP1;P1;durP2;ratioP2;P2;SDS_P1;SDS_P2;PMS_P1;PMS_P2;Temp;Humidity;BMP_temperature;BMP_pressure;BME280_temperature;BME280_humidity;BME280_pressure;Samples;Min_cycle;Max_cycle;Signal;HPM_P1;HPM_P2
2024/03/12 00:03:07;;;;;;;4.30;3.90;;;;;;;12.14;54.72;98311.38;6842755;29;20220;-84
2024/03/12 00:06:28;;;;;;;4.50;3.40;;;;;;;12.31;54.20;98316.97;6842544;29;20695;-84
2024/03/12 00:09:51;;;;;;;6.80;3.37;;;;;;;11.88;54.58;98265.78;6841913;29;20376;-84
2024/03/12 00:13:12;;;;;;;3.30;3.00;;;;;;;11.75;55.43;98314.53;6841963;29;20257;-84
2024/03/12 00:16:34;;;;;;;4.17;3.33;;;;;;;12.20;54.67;98321.28;6841717;29;20325;-84
2024/03/12 00:19:56;;;;;;;3.53;3.20;;;;;;;11.90;54.93;98308.75;6841326;29;20280;-84
2024/03/12 00:23:17;;;;;;;3.73;3.23;;;;;;;11.93;54.97;98322.63;6841915;29;20209;-83
2024/03/12 00:26:40;;;;;;;3.33;3.10;;;;;;;11.81;54.94;98318.22;6842577;29;20206;-84
2024/03/12 00:30:02;;;;;;;7.53;3.73;;;;;;;11.98;54.89;98316.56;6841906;29;20266;-84
2024/03/12 00:33:24;;;;;;;3.53;3.20;;;;;;;11.60;55.79;98329.44;6842755;29;20272;-84
2024/03/12 00:36:47;;;;;;;4.10;3.70;;;;;;;10.62;58.51;98334.78;6842519;29;20226;-83
2024/03/12 00:40:11;;;;;;;5.60;3.73;;;;;;;11.13;57.13;98341.69;6842779;29;20237;-84
2024/03/12 00:43:35;;;;;;;6.27;3.50;;;;;;;11.23;57.02;98347.38;6843545;29;20206;-84
2024/03/12 00:46:57;;;;;;;4.20;3.80;;;;;;;10.91;56.26;98256.78;6844866;29;20688;-84
2024/03/12 00:50:20;;;;;;;6.73;3.77;;;;;;;11.29;56.00;98338.44;6844316;29;20275;-84
2024/03/12 00:53:41;;;;;;;3.50;3.20;;;;;;;11.05;56.25;98309.56;6845239;29;20207;-84
2024/03/12 00:57:05;;;;;;;5.73;3.40;;;;;;;11.43;55.72;98344.53;6845966;29;20237;-84
2024/03/12 01:00:33;;;;;;;4.00;3.60;;;;;;;10.80;56.50;98345.66;6845119;29;20229;-84
2024/03/12 01:03:55;;;;;;;4.70;3.63;;;;;;;10.68;57.92;98350.91;6846053;29;20201;-84
2024/03/12 01:07:19;;;;;;;4.40;3.70;;;;;;;10.70;57.05;98356.91;6845501;29;20676;-85
2024/03/12 01:10:40;;;;;;;6.63;4.30;;;;;;;10.35;57.02;98264.06;6849406;28;20240;-84
2024/03/12 01:14:03;;;;;;;7.27;4.37;;;;;;;10.95;56.13;98338.91;6852347;29;20230;-84
2024/03/12 01:17:26;;;;;;;6.73;4.00;;;;;;;10.44;57.83;98345.44;6852686;29;20229;-84
2024/03/12 01:20:49;;;;;;;4.03;3.63;;;;;;;10.29;58.13;98353.84;6872463;28;20784;-84
2024/03/12 01:24:12;;;;;;;4.30;3.90;;;;;;;10.55;57.15;98359.06;6878194;28;20209;-83
2024/03/12 01:27:34;;;;;;;4.83;4.07;;;;;;;10.46;56.79;98352.28;6878524;28;20223;-84
2024/03/12 01:30:56;;;;;;;5.80;4.47;;;;;;;10.74;56.74;98368.09;6878426;28;20618;-84
2024/03/12 01:34:19;;;;;;;7.77;4.03;;;;;;;10.38;56.74;98357.91;6879332;28;20232;-83
2024/03/12 01:37:43;;;;;;;8.93;4.63;;;;;;;10.24;57.31;98369.81;6879803;28;20228;-83
2024/03/12 01:41:05;;;;;;;5.13;4.60;;;;;;;9.57;59.03;98349.66;6880300;28;20202;-83
2024/03/12 01:44:26;;;;;;;5.03;4.27;;;;;;;10.30;57.35;98370.81;6874443;28;20201;-83
2024/03/12 01:47:49;;;;;;;5.73;4.50;;;;;;;10.34;56.41;98372.03;6854693;29;20344;-84
2024/03/12 01:51:12;;;;;;;5.73;4.60;;;;;;;10.14;56.95;98380.19;6853770;28;20658;-83
2024/03/12 01:54:34;;;;;;;5.53;4.67;;;;;;;10.24;57.15;98387.81;6854081;29;20329;-84
2024/03/12 01:57:56;;;;;;;4.77;4.10;;;;;;;9.75;57.48;98379.44;6854144;29;20253;-84
2024/03/12 02:01:19;;;;;;;5.33;4.07;;;;;;;9.77;58.49;98361.22;6854691;29;20691;-83
2024/03/12 02:04:41;;;;;;;5.60;4.30;;;;;;;9.88;57.38;98371.34;6854470;29;20210;-84
2024/03/12 02:08:04;;;;;;;4.20;3.77;;;;;;;10.24;56.71;98382.44;6855121;29;20238;-83
2024/03/12 02:11:26;;;;;;;4.53;3.67;;;;;;;9.86;56.58;98397.66;6856137;29;20217;-84
2024/03/12 02:14:48;;;;;;;4.83;4.33;;;;;;;9.06;58.46;98391.69;6856089;29;20214;-83
2024/03/12 02:18:10;;;;;;;4.37;3.97;;;;;;;9.28;60.25;98398.53;6855795;29;20625;-83
2024/03/12 02:21:32;;;;;;;4.60;3.83;;;;;;;8.46;61.32;98359.53;6855802;28;20201;-84
2024/03/12 02:24:54;;;;;;;4.60;3.70;;;;;;;9.72;58.28;98371.78;6856394;29;20234;-84
2024/03/12 02:28:17;;;;;;;4.07;3.77;;;;;;;9.56;57.03;98391.88;6855711;29;20241;-84
2024/03/12 02:31:39;;;;;;;4.20;3.87;;;;;;;9.70;57.16;98398.91;6856197;29;20210;-83
2024/03/12 02:35:00;;;;;;;4.70;4.30;;;;;;;9.83;56.58;98403.44;6856946;29;20226;-84
2024/03/12 02:38:22;;;;;;;4.40;4.00;;;;;;;9.37;58.17;98410.72;6857826;29;20258;-84
2024/03/12 02:41:45;;;;;;;4.80;4.30;;;;;;;8.90;60.68;98408.19;6857195;29;20198;-84
2024/03/12 02:45:07;;;;;;;4.90;4.50;;;;;;;9.25;58.16;98345.13;6857393;29;20210;-84
2024/03/12 02:48:29;;;;;;;5.37;4.13;;;;;;;9.31;57.30;98366.66;6857894;29;20244;-84
2024/03/12 02:51:53;;;;;;;3.90;3.60;;;;;;;9.53;56.11;98400.41;6858477;28;20214;-84
2024/03/12 03:56:11;;;;;;;4.73;3.40;;;;;;;10.42;57.11;98447.25;6833051;29;20230;-84
2024/03/12 03:59:34;;;;;;;3.80;3.03;;;;;;;10.94;55.35;98403.84;6804111;29;20249;-84
2024/03/12 04:02:56;;;;;;;3.93;3.30;;;;;;;10.27;57.30;98409.78;6838646;29;20213;-84
2024/03/12 04:06:21;;;;;;;3.40;3.10;;;;;;;10.27;56.66;98382.84;6839279;29;20213;-84
2024/03/12 04:09:42;;;;;;;3.33;2.93;;;;;;;10.51;57.07;98435.19;6839046;29;20222;-83
2024/03/12 04:13:05;;;;;;;3.50;3.07;;;;;;;11.49;54.38;98440.81;6839742;29;20643;-84
2024/03/12 04:16:27;;;;;;;5.13;3.47;;;;;;;10.83;56.77;98451.22;6840089;29;20320;-84
2024/03/12 04:19:48;;;;;;;3.73;3.43;;;;;;;11.60;54.75;98462.59;6839299;29;20728;-84
2024/03/12 04:23:10;;;;;;;5.63;4.33;;;;;;;11.68;53.93;98466.91;6839491;29;20354;-84
2024/03/12 04:26:32;;;;;;;4.17;3.67;;;;;;;10.71;56.50;98462.88;6840927;29;20218;-84
2024/03/12 04:29:54;;;;;;;4.10;3.70;;;;;;;11.39;55.03;98454.81;6840365;29;20274;-84
2024/03/12 04:33:17;;;;;;;5.73;3.87;;;;;;;11.94;53.81;98477.47;6839918;29;20269;-84
2024/03/12 04:36:40;;;;;;;7.67;4.13;;;;;;;10.96;55.98;98471.88;6839859;29;20233;-84
2024/03/12 04:40:06;;;;;;;4.20;3.70;;;;;;;10.92;56.78;98465.28;6843291;29;20226;-84
2024/03/12 04:43:27;;;;;;;5.10;3.87;;;;;;;11.69;54.27;98455.03;6839732;29;20200;-84
2024/03/12 04:46:50;;;;;;;5.93;4.00;;;;;;;11.74;54.66;98480.31;6838786;29;20241;-84
2024/03/12 04:50:14;;;;;;;6.00;4.47;;;;;;;11.97;53.49;98483.25;6837667;29;20249;-84
2024/03/12 04:53:35;;;;;;;5.60;4.00;;;;;;;11.57;54.88;98467.56;6838278;29;20669;-84
2024/03/12 04:56:57;;;;;;;5.90;3.97;;;;;;;11.28;55.01;98498.69;6837934;29;20233;-84
2024/03/12 05:00:21;;;;;;;5.57;3.80;;;;;;;10.97;57.22;98495.13;6839451;29;20600;-83
2024/03/12 05:03:44;;;;;;;6.03;4.10;;;;;;;11.40;55.53;98496.13;6839190;29;20206;-84
2024/03/12 05:07:06;;;;;;;4.43;3.67;;;;;;;11.66;53.91;98455.47;6838081;29;20213;-84
2024/03/12 05:10:27;;;;;;;3.83;3.37;;;;;;;11.87;54.30;98519.91;6851176;28;20694;-84
2024/03/12 05:13:49;;;;;;;4.33;3.93;;;;;;;11.15;56.41;98541.94;6866106;28;20212;-84
2024/03/12 05:17:10;;;;;;;4.13;3.67;;;;;;;10.97;56.84;98532.88;6866321;28;20901;-84
2024/03/12 05:20:36;;;;;;;4.80;3.40;;;;;;;10.71;57.86;98544.63;6866170;28;20232;-83
2024/03/12 05:24:35;;;;;;;3.50;3.00;;;;;;;10.36;58.48;98500.13;6865303;28;20197;-84
2024/03/12 05:27:58;;;;;;;3.63;3.07;;;;;;;11.38;56.71;98558.44;6864512;28;20217;-85
2024/03/12 05:31:29;;;;;;;3.40;3.10;;;;;;;10.87;58.08;98527.94;6845783;28;20221;-87
2024/03/12 05:34:58;;;;;;;3.77;3.47;;;;;;;11.12;57.50;98572.06;6865259;28;20221;-85
2024/03/12 05:38:32;;;;;;;3.77;3.47;;;;;;;10.90;58.45;98542.88;6858108;28;20231;-85
2024/03/12 05:49:08;;;;;;;6.70;3.70;;;;;;;11.48;57.85;98576.84;6872571;28;20624;-85
2024/03/12 05:52:30;;;;;;;8.00;4.17;;;;;;;12.01;56.87;98584.44;6867802;28;20230;-86
2024/03/12 05:55:53;;;;;;;4.80;3.77;;;;;;;11.57;56.34;98472.97;6872213;28;20706;-85
2024/03/12 05:59:14;;;;;;;4.37;3.53;;;;;;;11.66;56.31;98487.88;6877573;28;20236;-85
2024/03/12 06:02:36;;;;;;;4.83;3.93;;;;;;;11.69;56.59;98484.75;6872027;28;20221;-85
2024/03/12 06:05:58;;;;;;;4.80;4.30;;;;;;;11.34;57.38;98459.22;6883345;28;20200;-84
2024/03/12 06:09:22;;;;;;;4.77;4.30;;;;;;;12.41;56.80;98593.03;6885034;28;20316;-85
2024/03/12 06:12:45;;;;;;;5.93;4.23;;;;;;;11.73;56.45;98475.97;6883457;28;20201;-85
2024/03/12 06:16:07;;;;;;;4.57;4.17;;;;;;;12.39;56.56;98585.13;6880876;28;20237;-85
2024/03/12 06:19:28;;;;;;;4.40;4.00;;;;;;;12.50;56.78;98602.50;6874234;28;20267;-86
2024/03/12 06:22:52;;;;;;;4.67;4.10;;;;;;;12.46;56.68;98601.31;6886054;28;20224;-84
2024/03/12 06:26:31;;;;;;;5.43;4.13;;;;;;;11.85;57.16;98540.91;6873065;28;20292;-83
2024/03/12 06:34:38;;;;;;;9.97;6.27;;;;;;;11.92;56.58;98541.69;6885255;28;20252;-89
2024/03/12 06:38:07;;;;;;;6.50;5.20;;;;;;;12.26;57.00;98582.56;6887745;28;20296;-89
2024/03/12 06:41:41;;;;;;;7.83;5.00;;;;;;;11.58;57.49;98540.25;6890441;28;20208;-91
2024/03/12 06:46:07;;;;;;;5.30;4.80;;;;;;;11.96;57.85;98573.44;6889945;28;20196;-92
2024/03/12 06:58:11;;;;;;;5.90;5.37;;;;;;;12.08;59.42;98624.91;6756628;29;20236;-83
2024/03/12 07:46:59;;;;;;;4.63;3.83;;;;;;;12.39;54.46;98543.78;6754978;29;20252;-84
2024/03/12 11:07:10;;;;;;;4.43;3.13;;;;;;;13.53;51.65;98713.47;1051349;23;21686;-79
2024/03/12 11:10:32;;;;;;;5.67;3.60;;;;;;;14.01;52.11;98774.81;6705028;29;20249;-80
2024/03/12 11:14:22;;;;;;;3.43;2.90;;;;;;;14.01;51.66;98771.25;6689165;29;20696;-89
2024/03/12 14:28:11;;;;;;;20.27;13.23;;;;;;;15.21;44.73;98791.63;6724961;29;20212;-87
2024/03/12 16:28:50;;;;;;;23.10;14.50;;;;;;;14.77;47.13;98826.56;4807027;23;21664;-85
2024/03/12 16:36:42;;;;;;;18.37;13.63;;;;;;;14.86;46.62;98822.50;6536554;30;20239;-85
2024/03/12 16:40:05;;;;;;;21.43;13.40;;;;;;;15.07;46.79;98830.91;6576787;29;20318;-84
2024/03/12 16:43:26;;;;;;;18.90;13.17;;;;;;;15.01;46.47;98828.28;6718965;29;20210;-86
2024/03/12 16:46:54;;;;;;;16.53;12.53;;;;;;;14.56;47.33;98835.22;6711766;29;20210;-84
2024/03/12 16:50:15;;;;;;;21.93;14.03;;;;;;;14.64;46.77;98784.16;6710470;29;20245;-83
2024/03/12 16:53:37;;;;;;;20.10;12.80;;;;;;;14.97;46.69;98827.94;6703654;29;20211;-84
2024/03/12 16:57:02;;;;;;;21.77;12.97;;;;;;;14.95;46.48;98829.22;6703377;29;20287;-83
2024/03/12 17:00:24;;;;;;;20.40;14.03;;;;;;;14.77;46.72;98811.13;6706226;29;20738;-83
2024/03/12 17:03:48;;;;;;;18.87;12.83;;;;;;;14.86;46.79;98814.34;6706810;29;20270;-83
2024/03/12 17:07:11;;;;;;;19.07;12.77;;;;;;;14.57;48.53;98821.44;6707753;29;20231;-84
2024/03/12 17:10:48;;;;;;;20.57;13.43;;;;;;;14.35;49.80;98793.16;6707238;29;20243;-83
2024/03/12 17:14:13;;;;;;;21.83;13.03;;;;;;;13.84;50.58;98749.38;6652442;29;20219;-83
2024/03/12 17:17:56;;;;;;;20.13;13.80;;;;;;;14.30;51.12;98841.00;6648615;29;20867;-84
2024/03/12 17:25:14;;;;;;;19.80;13.27;;;;;;;12.98;53.96;98788.38;6651843;29;20708;-84
2024/03/12 17:28:52;;;;;;;24.10;13.73;;;;;;;12.61;54.50;98715.38;6652262;29;20324;-83
2024/03/12 17:32:40;;;;;;;22.03;13.30;;;;;;;13.25;53.83;98776.28;6651607;29;20215;-84
2024/03/12 17:36:29;;;;;;;21.93;13.40;;;;;;;13.17;54.40;98810.91;6652272;29;20600;-83
2024/03/12 18:58:08;;;;;;;19.07;13.10;;;;;;;13.72;53.41;98864.13;6687634;29;20226;-85
2024/03/12 19:01:34;;;;;;;21.63;14.30;;;;;;;13.27;53.30;98808.53;6674698;29;20622;-83
2024/03/12 19:04:58;;;;;;;19.30;12.33;;;;;;;13.67;51.58;98845.84;6683073;29;20573;-83
2024/03/12 19:08:20;;;;;;;21.13;13.13;;;;;;;13.92;51.83;98867.50;6685249;29;20391;-82
2024/03/12 19:11:43;;;;;;;21.67;14.33;;;;;;;13.63;52.46;98860.88;6684484;29;20296;-86
2024/03/12 19:15:10;;;;;;;36.73;18.93;;;;;;;13.38;53.21;98854.66;6684113;29;20237;-81
2024/03/12 19:18:36;;;;;;;19.23;13.27;;;;;;;13.78;52.79;98883.06;6677217;29;20243;-84
2024/03/12 19:21:58;;;;;;;22.33;15.30;;;;;;;13.37;54.00;98861.13;6685734;29;20224;-83
2024/03/12 19:25:20;;;;;;;24.63;15.90;;;;;;;13.50;53.55;98866.44;6684953;29;20203;-83
2024/03/12 19:28:50;;;;;;;20.17;13.70;;;;;;;13.54;53.66;98889.34;6681343;29;20265;-84
2024/03/12 19:32:13;;;;;;;21.07;13.90;;;;;;;13.77;53.42;98884.13;6662404;29;20220;-82
2024/03/12 19:35:38;;;;;;;19.70;13.63;;;;;;;13.50;53.83;98888.09;6684339;29;20211;-83
2024/03/12 19:39:01;;;;;;;20.10;13.63;;;;;;;13.41;54.72;98883.19;6679915;29;20251;-83
2024/03/12 19:42:31;;;;;;;20.10;13.33;;;;;;;13.71;53.74;98879.59;6685202;29;20210;-85
2024/03/12 19:46:02;;;;;;;24.83;15.30;;;;;;;13.79;54.23;98886.56;6654155;29;20270;-83
2024/03/12 19:53:09;;;;;;;24.07;15.40;;;;;;;13.42;55.66;98885.69;6681541;29;20303;-81
2024/03/12 19:56:33;;;;;;;22.73;15.63;;;;;;;12.61;56.96;98845.19;6682911;29;20616;-80
2024/03/12 19:59:56;;;;;;;23.83;16.03;;;;;;;13.16;56.34;98890.47;6681751;29;20243;-81
2024/03/12 20:03:22;;;;;;;24.23;16.13;;;;;;;13.31;55.52;98861.19;6683916;29;20202;-83
2024/03/12 20:15:04;;;;;;;26.40;15.70;;;;;;;13.45;55.92;98885.22;6598297;30;20305;-83
2024/03/12 20:26:59;;;;;;;26.60;15.53;;;;;;;13.05;57.84;98869.53;6554822;30;20265;-83
2024/03/12 20:30:26;;;;;;;26.50;17.27;;;;;;;13.28;57.77;98888.72;6703859;24;20236;-81
2024/03/12 20:33:48;;;;;;;27.00;18.87;;;;;;;12.93;58.27;98876.66;6730174;29;20202;-82
2024/03/12 20:37:09;;;;;;;33.33;19.60;;;;;;;12.37;59.86;98841.38;6730924;29;20312;-82
2024/03/12 20:40:32;;;;;;;31.03;17.90;;;;;;;12.85;58.67;98888.56;6717885;29;20225;-82
2024/03/12 20:43:54;;;;;;;29.33;17.80;;;;;;;12.90;59.24;98906.84;6732824;29;20204;-82
2024/03/12 20:47:18;;;;;;;30.90;18.57;;;;;;;12.86;59.32;98881.28;6731169;29;20295;-82
2024/03/12 20:50:40;;;;;;;28.87;17.37;;;;;;;12.62;60.17;98887.47;6708370;29;20338;-81
2024/03/12 20:54:03;;;;;;;33.37;19.70;;;;;;;12.75;60.13;98884.69;6708067;29;20554;-82
2024/03/12 20:57:25;;;;;;;26.93;17.97;;;;;;;12.56;59.95;98848.56;6708409;29;20717;-83
2024/03/12 21:00:46;;;;;;;29.53;18.00;;;;;;;12.67;60.28;98872.22;6709113;29;20238;-82
2024/03/12 21:04:09;;;;;;;23.30;14.57;;;;;;;12.88;59.33;98863.78;6710744;29;20234;-82
2024/03/12 21:07:32;;;;;;;21.80;13.63;;;;;;;12.58;59.93;98859.97;6712995;29;20698;-82
2024/03/12 21:10:53;;;;;;;21.07;13.60;;;;;;;12.94;59.63;98876.44;6709284;29;20235;-82
2024/03/12 21:14:18;;;;;;;20.23;12.20;;;;;;;12.75;59.15;98877.38;6709563;29;20301;-82
2024/03/12 21:17:40;;;;;;;18.30;12.93;;;;;;;12.91;58.86;98857.91;6710604;29;20242;-84
2024/03/12 21:21:03;;;;;;;19.80;11.80;;;;;;;13.47;56.85;98868.75;6707890;29;20221;-84
2024/03/12 21:24:25;;;;;;;18.00;12.60;;;;;;;13.09;57.53;98871.56;6708117;29;20301;-84
2024/03/12 21:27:47;;;;;;;17.57;12.53;;;;;;;13.20;57.68;98851.06;6709974;29;20218;-84
2024/03/12 21:31:09;;;;;;;22.03;13.53;;;;;;;13.02;57.73;98832.91;6710931;29;20223;-84
2024/03/12 21:34:30;;;;;;;22.97;13.97;;;;;;;12.88;58.42;98852.13;6712444;29;20282;-84
2024/03/12 21:37:53;;;;;;;20.77;12.90;;;;;;;13.13;57.67;98847.59;6712425;29;20321;-84
2024/03/12 21:41:15;;;;;;;18.07;12.93;;;;;;;13.25;57.52;98851.25;6712831;29;20215;-85
2024/03/12 21:44:38;;;;;;;21.23;13.80;;;;;;;13.16;57.30;98852.56;6710043;29;20299;-84
2024/03/12 21:48:00;;;;;;;21.20;13.73;;;;;;;13.15;57.96;98846.31;6711838;29;20320;-84
2024/03/12 21:51:26;;;;;;;22.27;14.37;;;;;;;12.67;58.31;98812.72;6711395;29;20205;-83
2024/03/12 21:54:51;;;;;;;23.13;14.80;;;;;;;13.08;58.19;98832.00;6712099;29;20222;-83
2024/03/12 21:58:15;;;;;;;19.60;12.33;;;;;;;13.22;57.54;98840.88;6712514;29;20269;-86
2024/03/12 22:01:36;;;;;;;18.37;12.13;;;;;;;13.09;57.70;98833.66;6712652;29;20241;-84
2024/03/12 22:04:58;;;;;;;23.03;13.90;;;;;;;12.88;58.52;98839.44;6713362;29;20349;-84
2024/03/12 22:08:19;;;;;;;18.00;11.60;;;;;;;12.83;58.66;98835.69;6713621;29;20309;-84
2024/03/12 22:11:43;;;;;;;17.77;12.17;;;;;;;12.88;58.76;98817.78;6712930;29;20259;-86
2024/03/12 22:15:06;;;;;;;17.93;11.57;;;;;;;13.03;58.04;98831.00;6713811;29;20281;-86
2024/03/12 22:18:28;;;;;;;15.57;11.33;;;;;;;12.90;58.47;98833.78;6713331;29;20615;-86
2024/03/12 22:21:50;;;;;;;20.67;12.43;;;;;;;12.47;59.75;98835.50;6713775;29;20211;-86
2024/03/12 22:25:13;;;;;;;19.43;12.03;;;;;;;12.65;59.25;98832.91;6713792;29;20269;-86
2024/03/12 22:28:38;;;;;;;17.60;11.73;;;;;;;12.59;59.73;98828.38;6713733;29;20241;-86
2024/03/12 22:32:01;;;;;;;15.83;11.60;;;;;;;12.39;59.81;98831.19;6713386;29;20209;-86
2024/03/12 22:35:22;;;;;;;18.30;12.80;;;;;;;12.25;60.69;98812.53;6716184;29;20426;-85
2024/03/12 22:38:45;;;;;;;15.47;11.57;;;;;;;12.83;59.08;98830.28;6714476;29;20325;-86
2024/03/12 22:42:07;;;;;;;16.37;11.43;;;;;;;12.49;58.89;98776.63;6724271;29;20210;-86
2024/03/12 22:45:30;;;;;;;17.67;10.17;;;;;;;12.60;59.18;98814.63;6733829;29;20202;-86
2024/03/12 22:48:52;;;;;;;17.33;10.70;;;;;;;12.42;59.90;98816.41;6734980;29;20297;-88
2024/03/12 22:52:14;;;;;;;13.33;10.13;;;;;;;12.41;59.56;98818.28;6712072;29;20225;-86
2024/03/12 22:55:37;;;;;;;14.17;10.37;;;;;;;12.65;59.48;98813.97;6710014;29;20217;-86
2024/03/12 22:58:59;;;;;;;12.67;9.60;;;;;;;12.80;58.51;98806.41;6709321;29;20249;-86
2024/03/12 23:02:22;;;;;;;15.00;9.80;;;;;;;12.65;59.23;98804.00;6710179;29;20213;-86
2024/03/12 23:05:44;;;;;;;13.47;9.93;;;;;;;12.45;59.73;98792.47;6710357;29;20260;-86
2024/03/12 23:09:08;;;;;;;14.20;9.77;;;;;;;12.55;60.12;98794.69;6708550;29;20361;-86
2024/03/12 23:12:29;;;;;;;11.33;8.33;;;;;;;12.80;58.68;98777.44;6710297;29;20225;-86
2024/03/12 23:15:52;;;;;;;14.20;9.80;;;;;;;12.73;58.82;98798.31;6709907;29;20252;-86
2024/03/12 23:19:15;;;;;;;13.47;10.40;;;;;;;12.08;59.16;98695.16;6708737;29;20246;-86
2024/03/12 23:22:38;;;;;;;13.50;8.30;;;;;;;12.85;58.64;98787.59;6709313;29;20752;-86
2024/03/12 23:26:00;;;;;;;13.07;9.20;;;;;;;12.46;59.73;98785.19;6710152;29;20220;-86
2024/03/12 23:29:22;;;;;;;13.10;9.40;;;;;;;12.68;58.95;98787.31;6708891;29;20240;-86
2024/03/12 23:32:44;;;;;;;18.73;13.17;;;;;;;12.77;58.94;98786.00;6709728;29;20350;-86
2024/03/12 23:36:08;;;;;;;11.23;9.57;;;;;;;12.80;57.85;98784.75;6710884;29;20692;-87
2024/03/12 23:39:29;;;;;;;10.57;7.90;;;;;;;12.78;58.33;98776.84;6709342;29;20701;-86
2024/03/12 23:42:51;;;;;;;10.33;7.50;;;;;;;12.93;58.35;98776.53;6709845;29;20248;-86
2024/03/12 23:46:13;;;;;;;7.80;6.47;;;;;;;12.94;57.79;98768.19;6709396;29;20644;-86
2024/03/12 23:49:35;;;;;;;8.37;6.20;;;;;;;12.65;57.89;98763.41;6717277;29;20618;-86
2024/03/12 23:52:58;;;;;;;9.77;7.87;;;;;;;12.80;58.13;98771.22;6709075;29;20213;-86
2024/03/12 23:56:19;;;;;;;8.83;6.43;;;;;;;12.91;57.22;98743.41;6709224;29;20277;-86
2024/03/12 23:59:44;;;;;;;9.63;7.97;;;;;;;12.32;58.63;98735.75;6711174;29;20724;-86
